sensor_id;sensor_type;location;lat;lon;timestamp;P1;durP1;ratioP1;P2;durP2;ratioP2
16667;SDS011;8447;52.630;4.734;2023-06-22T00:01:05;23.90;;;15.70;;
16667;SDS011;8447;52.630;4.734;2023-06-22T00:03:34;21.07;;;16.70;;
16667;SDS011;8447;52.630;4.734;2023-06-22T00:06:00;20.10;;;15.67;;
16667;SDS011;8447;52.630;4.734;2023-06-22T00:08:27;20.37;;;14.83;;
16667;SDS011;8447;52.630;4.734;2023-06-22T00:10:53;23.20;;;16.00;;
16667;SDS011;8447;52.630;4.734;2023-06-22T00:13:19;22.40;;;15.30;;
16667;SDS011;8447;52.630;4.734;2023-06-22T00:15:46;22.00;;;14.93;;
16667;SDS011;8447;52.630;4.734;2023-06-22T00:18:12;20.80;;;14.60;;
16667;SDS011;8447;52.630;4.734;2023-06-22T00:20:41;21.53;;;15.63;;
16667;SDS011;8447;52.630;4.734;2023-06-22T00:23:07;20.97;;;14.23;;
16667;SDS011;8447;52.630;4.734;2023-06-22T00:25:34;23.83;;;15.83;;
16667;SDS011;8447;52.630;4.734;2023-06-22T00:28:00;20.07;;;15.20;;
16667;SDS011;8447;52.630;4.734;2023-06-22T00:30:27;18.63;;;14.43;;
16667;SDS011;8447;52.630;4.734;2023-06-22T00:32:53;18.93;;;13.80;;
16667;SDS011;8447;52.630;4.734;2023-06-22T00:35:20;23.33;;;15.47;;
16667;SDS011;8447;52.630;4.734;2023-06-22T00:37:47;18.50;;;13.83;;
16667;SDS011;8447;52.630;4.734;2023-06-22T00:40:14;20.70;;;14.70;;
16667;SDS011;8447;52.630;4.734;2023-06-22T00:42:42;20.33;;;15.87;;
16667;SDS011;8447;52.630;4.734;2023-06-22T00:45:09;21.70;;;15.37;;
16667;SDS011;8447;52.630;4.734;2023-06-22T00:47:35;20.07;;;14.63;;
16667;SDS011;8447;52.630;4.734;2023-06-22T00:50:02;24.60;;;15.83;;
16667;SDS011;8447;52.630;4.734;2023-06-22T00:52:29;22.90;;;14.87;;
16667;SDS011;8447;52.630;4.734;2023-06-22T00:54:58;21.97;;;13.67;;
16667;SDS011;8447;52.630;4.734;2023-06-22T00:57:26;24.40;;;14.80;;
16667;SDS011;8447;52.630;4.734;2023-06-22T00:59:53;19.20;;;13.60;;
16667;SDS011;8447;52.630;4.734;2023-06-22T01:02:20;20.13;;;13.97;;
16667;SDS011;8447;52.630;4.734;2023-06-22T01:04:47;23.47;;;15.20;;
16667;SDS011;8447;52.630;4.734;2023-06-22T01:07:15;24.40;;;15.13;;
16667;SDS011;8447;52.630;4.734;2023-06-22T01:09:45;21.50;;;14.60;;
16667;SDS011;8447;52.630;4.734;2023-06-22T01:12:15;20.17;;;13.83;;
16667;SDS011;8447;52.630;4.734;2023-06-22T01:14:43;22.80;;;15.20;;
16667;SDS011;8447;52.630;4.734;2023-06-22T01:17:13;23.30;;;15.77;;
16667;SDS011;8447;52.630;4.734;2023-06-22T01:19:43;22.27;;;14.93;;
16667;SDS011;8447;52.630;4.734;2023-06-22T01:22:12;26.43;;;16.57;;
16667;SDS011;8447;52.630;4.734;2023-06-22T01:24:41;20.37;;;14.83;;
16667;SDS011;8447;52.630;4.734;2023-06-22T01:27:14;25.07;;;15.77;;
16667;SDS011;8447;52.630;4.734;2023-06-22T01:29:48;25.13;;;17.07;;
16667;SDS011;8447;52.630;4.734;2023-06-22T01:32:14;23.93;;;16.60;;
16667;SDS011;8447;52.630;4.734;2023-06-22T01:34:41;23.40;;;15.83;;
16667;SDS011;8447;52.630;4.734;2023-06-22T01:37:08;29.67;;;17.40;;
16667;SDS011;8447;52.630;4.734;2023-06-22T01:39:34;23.17;;;15.77;;
16667;SDS011;8447;52.630;4.734;2023-06-22T01:42:01;22.73;;;15.17;;
16667;SDS011;8447;52.630;4.734;2023-06-22T01:44:28;24.80;;;15.87;;
16667;SDS011;8447;52.630;4.734;2023-06-22T01:46:56;23.60;;;16.37;;
16667;SDS011;8447;52.630;4.734;2023-06-22T01:49:22;24.17;;;16.40;;
16667;SDS011;8447;52.630;4.734;2023-06-22T01:51:49;24.10;;;16.10;;
16667;SDS011;8447;52.630;4.734;2023-06-22T01:54:15;23.20;;;14.70;;
16667;SDS011;8447;52.630;4.734;2023-06-22T01:56:41;25.97;;;17.93;;
16667;SDS011;8447;52.630;4.734;2023-06-22T01:59:09;21.40;;;16.07;;
16667;SDS011;8447;52.630;4.734;2023-06-22T02:01:39;26.20;;;16.83;;
16667;SDS011;8447;52.630;4.734;2023-06-22T02:04:13;26.20;;;17.40;;
16667;SDS011;8447;52.630;4.734;2023-06-22T02:06:43;20.97;;;13.43;;
16667;SDS011;8447;52.630;4.734;2023-06-22T02:09:12;17.70;;;11.50;;
16667;SDS011;8447;52.630;4.734;2023-06-22T02:11:38;19.73;;;13.70;;
16667;SDS011;8447;52.630;4.734;2023-06-22T02:14:06;21.90;;;15.73;;
16667;SDS011;8447;52.630;4.734;2023-06-22T02:16:33;26.37;;;16.23;;
16667;SDS011;8447;52.630;4.734;2023-06-22T02:19:00;27.70;;;17.63;;
16667;SDS011;8447;52.630;4.734;2023-06-22T02:21:29;25.27;;;16.47;;
16667;SDS011;8447;52.630;4.734;2023-06-22T02:23:56;25.13;;;16.50;;
16667;SDS011;8447;52.630;4.734;2023-06-22T02:26:23;18.53;;;11.47;;
16667;SDS011;8447;52.630;4.734;2023-06-22T02:28:49;25.33;;;16.13;;
16667;SDS011;8447;52.630;4.734;2023-06-22T02:31:16;23.47;;;15.37;;
16667;SDS011;8447;52.630;4.734;2023-06-22T02:33:43;24.83;;;15.70;;
16667;SDS011;8447;52.630;4.734;2023-06-22T02:36:10;23.50;;;14.23;;
16667;SDS011;8447;52.630;4.734;2023-06-22T02:38:39;21.80;;;14.63;;
16667;SDS011;8447;52.630;4.734;2023-06-22T02:41:13;24.10;;;14.17;;
16667;SDS011;8447;52.630;4.734;2023-06-22T02:43:43;19.27;;;13.47;;
16667;SDS011;8447;52.630;4.734;2023-06-22T02:46:09;17.77;;;12.13;;
16667;SDS011;8447;52.630;4.734;2023-06-22T02:48:35;19.60;;;13.97;;
16667;SDS011;8447;52.630;4.734;2023-06-22T02:51:02;23.13;;;14.27;;
16667;SDS011;8447;52.630;4.734;2023-06-22T02:53:28;21.63;;;14.53;;
16667;SDS011;8447;52.630;4.734;2023-06-22T02:55:56;23.23;;;14.33;;
16667;SDS011;8447;52.630;4.734;2023-06-22T02:58:23;21.67;;;14.33;;
16667;SDS011;8447;52.630;4.734;2023-06-22T03:00:49;26.00;;;15.17;;
16667;SDS011;8447;52.630;4.734;2023-06-22T03:03:17;21.00;;;13.00;;
16667;SDS011;8447;52.630;4.734;2023-06-22T03:05:44;20.87;;;12.97;;
16667;SDS011;8447;52.630;4.734;2023-06-22T03:08:10;20.40;;;12.33;;
16667;SDS011;8447;52.630;4.734;2023-06-22T03:10:37;16.03;;;11.67;;
16667;SDS011;8447;52.630;4.734;2023-06-22T03:13:05;18.73;;;12.63;;
16667;SDS011;8447;52.630;4.734;2023-06-22T03:15:31;21.23;;;11.93;;
16667;SDS011;8447;52.630;4.734;2023-06-22T03:17:58;19.33;;;12.53;;
16667;SDS011;8447;52.630;4.734;2023-06-22T03:20:25;17.37;;;11.50;;
16667;SDS011;8447;52.630;4.734;2023-06-22T03:22:55;19.37;;;13.90;;
16667;SDS011;8447;52.630;4.734;2023-06-22T03:25:21;21.07;;;12.43;;
16667;SDS011;8447;52.630;4.734;2023-06-22T03:27:47;19.23;;;12.97;;
16667;SDS011;8447;52.630;4.734;2023-06-22T03:30:15;17.40;;;12.73;;
16667;SDS011;8447;52.630;4.734;2023-06-22T03:32:41;9.90;;;7.57;;
16667;SDS011;8447;52.630;4.734;2023-06-22T03:35:08;11.20;;;8.47;;
16667;SDS011;8447;52.630;4.734;2023-06-22T03:37:39;17.00;;;9.87;;
16667;SDS011;8447;52.630;4.734;2023-06-22T03:40:06;15.97;;;12.20;;
16667;SDS011;8447;52.630;4.734;2023-06-22T03:42:33;17.13;;;13.10;;
16667;SDS011;8447;52.630;4.734;2023-06-22T03:44:59;18.07;;;11.80;;
16667;SDS011;8447;52.630;4.734;2023-06-22T03:47:28;11.70;;;8.53;;
16667;SDS011;8447;52.630;4.734;2023-06-22T03:49:54;11.20;;;7.70;;
16667;SDS011;8447;52.630;4.734;2023-06-22T03:52:21;14.63;;;10.87;;
16667;SDS011;8447;52.630;4.734;2023-06-22T03:54:47;9.97;;;7.57;;
16667;SDS011;8447;52.630;4.734;2023-06-22T03:57:14;9.70;;;6.93;;
16667;SDS011;8447;52.630;4.734;2023-06-22T03:59:40;8.93;;;6.30;;
16667;SDS011;8447;52.630;4.734;2023-06-22T04:02:07;9.73;;;6.30;;
16667;SDS011;8447;52.630;4.734;2023-06-22T04:04:35;7.90;;;6.40;;
16667;SDS011;8447;52.630;4.734;2023-06-22T04:07:01;14.83;;;11.23;;
16667;SDS011;8447;52.630;4.734;2023-06-22T04:09:27;10.60;;;8.03;;
16667;SDS011;8447;52.630;4.734;2023-06-22T04:11:54;10.20;;;6.20;;
16667;SDS011;8447;52.630;4.734;2023-06-22T04:14:20;15.30;;;11.80;;
16667;SDS011;8447;52.630;4.734;2023-06-22T04:16:46;16.33;;;12.00;;
16667;SDS011;8447;52.630;4.734;2023-06-22T04:19:13;11.70;;;7.80;;
16667;SDS011;8447;52.630;4.734;2023-06-22T04:21:43;12.60;;;9.53;;
16667;SDS011;8447;52.630;4.734;2023-06-22T04:24:09;9.70;;;6.23;;
16667;SDS011;8447;52.630;4.734;2023-06-22T04:26:36;8.33;;;5.07;;
16667;SDS011;8447;52.630;4.734;2023-06-22T04:29:03;8.40;;;6.03;;
16667;SDS011;8447;52.630;4.734;2023-06-22T04:31:30;9.17;;;6.10;;
16667;SDS011;8447;52.630;4.734;2023-06-22T04:33:57;11.37;;;9.07;;
16667;SDS011;8447;52.630;4.734;2023-06-22T04:36:30;12.03;;;8.97;;
16667;SDS011;8447;52.630;4.734;2023-06-22T04:39:03;9.57;;;6.20;;
16667;SDS011;8447;52.630;4.734;2023-06-22T04:41:31;17.13;;;11.70;;
16667;SDS011;8447;52.630;4.734;2023-06-22T04:44:07;16.77;;;11.83;;
16667;SDS011;8447;52.630;4.734;2023-06-22T04:46:33;12.40;;;8.17;;
16667;SDS011;8447;52.630;4.734;2023-06-22T04:49:04;6.17;;;4.93;;
16667;SDS011;8447;52.630;4.734;2023-06-22T04:51:31;9.27;;;6.37;;
16667;SDS011;8447;52.630;4.734;2023-06-22T04:53:57;10.37;;;6.33;;
16667;SDS011;8447;52.630;4.734;2023-06-22T04:56:27;13.90;;;9.67;;
16667;SDS011;8447;52.630;4.734;2023-06-22T04:58:54;11.53;;;7.43;;
16667;SDS011;8447;52.630;4.734;2023-06-22T05:01:22;7.67;;;6.07;;
16667;SDS011;8447;52.630;4.734;2023-06-22T05:03:48;14.87;;;11.23;;
16667;SDS011;8447;52.630;4.734;2023-06-22T05:06:14;10.03;;;6.53;;
16667;SDS011;8447;52.630;4.734;2023-06-22T05:08:41;18.77;;;12.33;;
16667;SDS011;8447;52.630;4.734;2023-06-22T05:11:07;10.53;;;7.90;;
16667;SDS011;8447;52.630;4.734;2023-06-22T05:13:35;9.20;;;6.63;;
16667;SDS011;8447;52.630;4.734;2023-06-22T05:16:01;10.67;;;6.77;;
16667;SDS011;8447;52.630;4.734;2023-06-22T05:18:28;16.13;;;11.77;;
16667;SDS011;8447;52.630;4.734;2023-06-22T05:20:55;11.20;;;8.33;;
16667;SDS011;8447;52.630;4.734;2023-06-22T05:23:21;11.80;;;7.77;;
16667;SDS011;8447;52.630;4.734;2023-06-22T05:25:48;10.03;;;7.37;;
16667;SDS011;8447;52.630;4.734;2023-06-22T05:28:14;20.70;;;15.43;;
16667;SDS011;8447;52.630;4.734;2023-06-22T05:30:42;22.03;;;15.83;;
16667;SDS011;8447;52.630;4.734;2023-06-22T05:33:08;22.83;;;15.60;;
16667;SDS011;8447;52.630;4.734;2023-06-22T05:35:34;16.13;;;12.60;;
16667;SDS011;8447;52.630;4.734;2023-06-22T05:38:01;23.80;;;16.00;;
16667;SDS011;8447;52.630;4.734;2023-06-22T05:40:27;28.43;;;16.80;;
16667;SDS011;8447;52.630;4.734;2023-06-22T05:42:54;23.13;;;16.13;;
16667;SDS011;8447;52.630;4.734;2023-06-22T05:45:20;22.43;;;15.10;;
16667;SDS011;8447;52.630;4.734;2023-06-22T05:47:48;27.70;;;17.77;;
16667;SDS011;8447;52.630;4.734;2023-06-22T05:50:14;23.00;;;17.03;;
16667;SDS011;8447;52.630;4.734;2023-06-22T05:52:40;23.20;;;16.97;;
16667;SDS011;8447;52.630;4.734;2023-06-22T05:55:07;27.23;;;17.87;;
16667;SDS011;8447;52.630;4.734;2023-06-22T05:57:34;27.20;;;17.93;;
16667;SDS011;8447;52.630;4.734;2023-06-22T06:00:00;21.33;;;16.50;;
16667;SDS011;8447;52.630;4.734;2023-06-22T06:02:27;23.57;;;17.30;;
16667;SDS011;8447;52.630;4.734;2023-06-22T06:04:55;24.67;;;16.03;;
16667;SDS011;8447;52.630;4.734;2023-06-22T06:07:22;22.67;;;16.87;;
16667;SDS011;8447;52.630;4.734;2023-06-22T06:09:48;25.33;;;17.00;;
16667;SDS011;8447;52.630;4.734;2023-06-22T06:12:14;21.67;;;16.17;;
16667;SDS011;8447;52.630;4.734;2023-06-22T06:14:41;23.40;;;16.60;;
16667;SDS011;8447;52.630;4.734;2023-06-22T06:17:08;19.23;;;13.27;;
16667;SDS011;8447;52.630;4.734;2023-06-22T06:19:34;24.57;;;16.87;;
16667;SDS011;8447;52.630;4.734;2023-06-22T06:22:02;21.23;;;15.73;;
16667;SDS011;8447;52.630;4.734;2023-06-22T06:24:29;22.27;;;15.90;;
16667;SDS011;8447;52.630;4.734;2023-06-22T06:26:55;24.37;;;15.90;;
16667;SDS011;8447;52.630;4.734;2023-06-22T06:29:22;22.57;;;15.67;;
16667;SDS011;8447;52.630;4.734;2023-06-22T06:31:48;24.37;;;17.43;;
16667;SDS011;8447;52.630;4.734;2023-06-22T06:34:15;22.20;;;17.80;;
16667;SDS011;8447;52.630;4.734;2023-06-22T06:36:41;20.40;;;14.67;;
16667;SDS011;8447;52.630;4.734;2023-06-22T06:39:10;21.23;;;15.03;;
16667;SDS011;8447;52.630;4.734;2023-06-22T06:41:37;25.23;;;18.90;;
16667;SDS011;8447;52.630;4.734;2023-06-22T06:44:03;23.87;;;17.27;;
16667;SDS011;8447;52.630;4.734;2023-06-22T06:46:30;24.17;;;16.93;;
16667;SDS011;8447;52.630;4.734;2023-06-22T06:48:56;24.00;;;15.97;;
16667;SDS011;8447;52.630;4.734;2023-06-22T06:51:22;25.13;;;16.80;;
16667;SDS011;8447;52.630;4.734;2023-06-22T06:53:49;22.27;;;16.97;;
16667;SDS011;8447;52.630;4.734;2023-06-22T06:56:17;24.03;;;17.73;;
16667;SDS011;8447;52.630;4.734;2023-06-22T06:58:43;19.67;;;17.23;;
16667;SDS011;8447;52.630;4.734;2023-06-22T07:01:10;23.07;;;15.97;;
16667;SDS011;8447;52.630;4.734;2023-06-22T07:03:36;20.80;;;14.80;;
16667;SDS011;8447;52.630;4.734;2023-06-22T07:06:03;23.40;;;15.00;;
16667;SDS011;8447;52.630;4.734;2023-06-22T07:08:29;19.07;;;15.40;;
16667;SDS011;8447;52.630;4.734;2023-06-22T07:10:56;19.60;;;13.93;;
16667;SDS011;8447;52.630;4.734;2023-06-22T07:13:24;21.57;;;16.27;;
16667;SDS011;8447;52.630;4.734;2023-06-22T07:15:50;20.97;;;14.50;;
16667;SDS011;8447;52.630;4.734;2023-06-22T07:18:17;19.10;;;14.10;;
16667;SDS011;8447;52.630;4.734;2023-06-22T07:20:43;18.10;;;12.80;;
16667;SDS011;8447;52.630;4.734;2023-06-22T07:23:09;15.83;;;11.87;;
16667;SDS011;8447;52.630;4.734;2023-06-22T07:25:36;18.30;;;13.53;;
16667;SDS011;8447;52.630;4.734;2023-06-22T07:28:03;17.97;;;11.37;;
16667;SDS011;8447;52.630;4.734;2023-06-22T07:30:32;14.97;;;11.03;;
16667;SDS011;8447;52.630;4.734;2023-06-22T07:32:58;13.50;;;10.30;;
16667;SDS011;8447;52.630;4.734;2023-06-22T07:35:28;13.47;;;10.77;;
16667;SDS011;8447;52.630;4.734;2023-06-22T07:37:54;12.00;;;10.77;;
16667;SDS011;8447;52.630;4.734;2023-06-22T07:40:21;15.47;;;12.77;;
16667;SDS011;8447;52.630;4.734;2023-06-22T07:42:47;18.10;;;12.23;;
16667;SDS011;8447;52.630;4.734;2023-06-22T07:45:16;13.83;;;10.87;;
16667;SDS011;8447;52.630;4.734;2023-06-22T07:47:44;13.80;;;11.07;;
16667;SDS011;8447;52.630;4.734;2023-06-22T07:50:10;12.73;;;11.10;;
16667;SDS011;8447;52.630;4.734;2023-06-22T07:52:37;11.80;;;10.50;;
16667;SDS011;8447;52.630;4.734;2023-06-22T07:55:03;12.47;;;10.20;;
16667;SDS011;8447;52.630;4.734;2023-06-22T07:57:30;12.97;;;10.77;;
16667;SDS011;8447;52.630;4.734;2023-06-22T07:59:58;14.10;;;9.27;;
16667;SDS011;8447;52.630;4.734;2023-06-22T08:02:25;14.07;;;9.37;;
16667;SDS011;8447;52.630;4.734;2023-06-22T08:04:52;12.00;;;9.73;;
16667;SDS011;8447;52.630;4.734;2023-06-22T08:07:19;11.27;;;7.47;;
16667;SDS011;8447;52.630;4.734;2023-06-22T08:09:46;7.67;;;6.87;;
16667;SDS011;8447;52.630;4.734;2023-06-22T08:12:12;13.00;;;9.17;;
16667;SDS011;8447;52.630;4.734;2023-06-22T08:14:39;11.30;;;8.97;;
16667;SDS011;8447;52.630;4.734;2023-06-22T08:17:06;12.43;;;9.70;;
16667;SDS011;8447;52.630;4.734;2023-06-22T08:19:32;10.97;;;9.47;;
16667;SDS011;8447;52.630;4.734;2023-06-22T08:22:00;10.07;;;7.70;;
16667;SDS011;8447;52.630;4.734;2023-06-22T08:24:26;8.27;;;7.43;;
16667;SDS011;8447;52.630;4.734;2023-06-22T08:26:55;11.87;;;7.13;;
16667;SDS011;8447;52.630;4.734;2023-06-22T08:29:22;9.63;;;7.10;;
16667;SDS011;8447;52.630;4.734;2023-06-22T08:31:48;12.57;;;8.73;;
16667;SDS011;8447;52.630;4.734;2023-06-22T08:34:15;8.90;;;7.85;;
16667;SDS011;8447;52.630;4.734;2023-06-22T08:36:43;12.13;;;8.43;;
16667;SDS011;8447;52.630;4.734;2023-06-22T08:39:18;10.57;;;7.88;;
16667;SDS011;8447;52.630;4.734;2023-06-22T08:41:45;8.27;;;7.28;;
16667;SDS011;8447;52.630;4.734;2023-06-22T08:44:11;9.80;;;7.55;;
16667;SDS011;8447;52.630;4.734;2023-06-22T08:46:37;8.20;;;7.22;;
16667;SDS011;8447;52.630;4.734;2023-06-22T08:49:05;10.15;;;7.47;;
16667;SDS011;8447;52.630;4.734;2023-06-22T08:51:32;8.20;;;7.30;;
16667;SDS011;8447;52.630;4.734;2023-06-22T08:53:59;8.38;;;6.22;;
16667;SDS011;8447;52.630;4.734;2023-06-22T08:56:26;7.53;;;5.88;;
16667;SDS011;8447;52.630;4.734;2023-06-22T08:58:53;7.43;;;5.97;;
16667;SDS011;8447;52.630;4.734;2023-06-22T09:01:20;6.60;;;5.68;;
16667;SDS011;8447;52.630;4.734;2023-06-22T09:03:47;7.07;;;5.80;;
16667;SDS011;8447;52.630;4.734;2023-06-22T09:06:19;7.88;;;6.38;;
16667;SDS011;8447;52.630;4.734;2023-06-22T09:08:45;9.00;;;7.88;;
16667;SDS011;8447;52.630;4.734;2023-06-22T09:11:12;8.50;;;6.95;;
16667;SDS011;8447;52.630;4.734;2023-06-22T09:13:39;8.65;;;6.65;;
16667;SDS011;8447;52.630;4.734;2023-06-22T09:16:06;8.73;;;5.70;;
16667;SDS011;8447;52.630;4.734;2023-06-22T09:18:33;11.15;;;7.10;;
16667;SDS011;8447;52.630;4.734;2023-06-22T09:21:01;9.43;;;7.50;;
16667;SDS011;8447;52.630;4.734;2023-06-22T09:23:27;7.75;;;6.90;;
16667;SDS011;8447;52.630;4.734;2023-06-22T09:25:54;9.10;;;6.25;;
16667;SDS011;8447;52.630;4.734;2023-06-22T09:28:20;6.40;;;5.32;;
16667;SDS011;8447;52.630;4.734;2023-06-22T09:30:48;5.95;;;4.70;;
16667;SDS011;8447;52.630;4.734;2023-06-22T09:33:14;6.68;;;3.95;;
16667;SDS011;8447;52.630;4.734;2023-06-22T09:35:41;8.50;;;5.60;;
16667;SDS011;8447;52.630;4.734;2023-06-22T09:38:07;7.07;;;4.00;;
16667;SDS011;8447;52.630;4.734;2023-06-22T09:40:33;7.93;;;4.05;;
16667;SDS011;8447;52.630;4.734;2023-06-22T09:43:05;9.07;;;5.75;;
16667;SDS011;8447;52.630;4.734;2023-06-22T09:45:31;7.47;;;5.65;;
16667;SDS011;8447;52.630;4.734;2023-06-22T09:47:59;5.10;;;4.55;;
16667;SDS011;8447;52.630;4.734;2023-06-22T09:50:25;6.68;;;5.78;;
16667;SDS011;8447;52.630;4.734;2023-06-22T09:52:51;5.22;;;4.72;;
16667;SDS011;8447;52.630;4.734;2023-06-22T09:55:20;6.18;;;5.25;;
16667;SDS011;8447;52.630;4.734;2023-06-22T09:57:46;8.43;;;6.55;;
16667;SDS011;8447;52.630;4.734;2023-06-22T10:00:13;4.72;;;3.05;;
16667;SDS011;8447;52.630;4.734;2023-06-22T10:02:40;5.93;;;5.28;;
16667;SDS011;8447;52.630;4.734;2023-06-22T10:05:08;4.70;;;4.22;;
16667;SDS011;8447;52.630;4.734;2023-06-22T10:07:34;9.50;;;5.90;;
16667;SDS011;8447;52.630;4.734;2023-06-22T10:10:05;13.95;;;5.35;;
16667;SDS011;8447;52.630;4.734;2023-06-22T10:12:31;7.18;;;4.78;;
16667;SDS011;8447;52.630;4.734;2023-06-22T10:14:57;9.50;;;6.35;;
16667;SDS011;8447;52.630;4.734;2023-06-22T10:17:24;11.63;;;6.82;;
16667;SDS011;8447;52.630;4.734;2023-06-22T10:19:50;7.90;;;5.88;;
16667;SDS011;8447;52.630;4.734;2023-06-22T10:22:18;11.27;;;5.60;;
16667;SDS011;8447;52.630;4.734;2023-06-22T10:24:44;9.20;;;6.30;;
16667;SDS011;8447;52.630;4.734;2023-06-22T10:27:11;7.22;;;5.85;;
16667;SDS011;8447;52.630;4.734;2023-06-22T10:29:38;6.63;;;5.10;;
16667;SDS011;8447;52.630;4.734;2023-06-22T10:32:05;7.10;;;4.25;;
16667;SDS011;8447;52.630;4.734;2023-06-22T10:34:32;9.48;;;5.57;;
16667;SDS011;8447;52.630;4.734;2023-06-22T10:36:58;7.07;;;5.40;;
16667;SDS011;8447;52.630;4.734;2023-06-22T10:39:26;8.70;;;7.07;;
16667;SDS011;8447;52.630;4.734;2023-06-22T10:41:53;7.70;;;5.50;;
16667;SDS011;8447;52.630;4.734;2023-06-22T10:44:20;9.13;;;5.50;;
16667;SDS011;8447;52.630;4.734;2023-06-22T10:46:47;9.37;;;4.97;;
16667;SDS011;8447;52.630;4.734;2023-06-22T10:49:13;6.80;;;4.87;;
16667;SDS011;8447;52.630;4.734;2023-06-22T10:51:39;5.63;;;4.07;;
16667;SDS011;8447;52.630;4.734;2023-06-22T10:54:06;9.17;;;6.77;;
16667;SDS011;8447;52.630;4.734;2023-06-22T10:56:34;8.90;;;6.23;;
16667;SDS011;8447;52.630;4.734;2023-06-22T10:59:01;5.60;;;4.63;;
16667;SDS011;8447;52.630;4.734;2023-06-22T11:01:27;6.43;;;4.77;;
16667;SDS011;8447;52.630;4.734;2023-06-22T11:03:56;7.10;;;5.93;;
16667;SDS011;8447;52.630;4.734;2023-06-22T11:06:22;6.27;;;4.63;;
16667;SDS011;8447;52.630;4.734;2023-06-22T11:08:48;6.13;;;5.17;;
16667;SDS011;8447;52.630;4.734;2023-06-22T11:11:15;6.07;;;4.30;;
16667;SDS011;8447;52.630;4.734;2023-06-22T11:13:44;7.73;;;6.37;;
16667;SDS011;8447;52.630;4.734;2023-06-22T11:16:10;3.72;;;2.97;;
16667;SDS011;8447;52.630;4.734;2023-06-22T11:18:36;5.93;;;4.32;;
16667;SDS011;8447;52.630;4.734;2023-06-22T11:21:03;8.73;;;4.13;;
16667;SDS011;8447;52.630;4.734;2023-06-22T11:23:29;6.90;;;4.03;;
16667;SDS011;8447;52.630;4.734;2023-06-22T11:25:56;9.10;;;6.10;;
16667;SDS011;8447;52.630;4.734;2023-06-22T11:28:22;7.13;;;5.57;;
16667;SDS011;8447;52.630;4.734;2023-06-22T11:30:50;10.63;;;4.90;;
16667;SDS011;8447;52.630;4.734;2023-06-22T11:33:16;6.20;;;3.50;;
16667;SDS011;8447;52.630;4.734;2023-06-22T11:35:42;7.97;;;3.13;;
16667;SDS011;8447;52.630;4.734;2023-06-22T11:38:09;7.57;;;5.17;;
16667;SDS011;8447;52.630;4.734;2023-06-22T11:40:35;5.90;;;5.20;;
16667;SDS011;8447;52.630;4.734;2023-06-22T11:43:02;7.70;;;5.20;;
16667;SDS011;8447;52.630;4.734;2023-06-22T11:45:28;8.50;;;5.37;;
16667;SDS011;8447;52.630;4.734;2023-06-22T11:47:56;6.87;;;3.67;;
16667;SDS011;8447;52.630;4.734;2023-06-22T11:50:22;8.43;;;5.73;;
16667;SDS011;8447;52.630;4.734;2023-06-22T11:52:49;8.13;;;4.80;;
16667;SDS011;8447;52.630;4.734;2023-06-22T11:55:15;5.80;;;4.13;;
16667;SDS011;8447;52.630;4.734;2023-06-22T11:57:52;5.60;;;4.80;;
16667;SDS011;8447;52.630;4.734;2023-06-22T12:00:18;6.10;;;4.80;;
16667;SDS011;8447;52.630;4.734;2023-06-22T12:02:45;4.70;;;3.00;;
16667;SDS011;8447;52.630;4.734;2023-06-22T12:05:13;6.70;;;4.60;;
16667;SDS011;8447;52.630;4.734;2023-06-22T12:07:40;4.30;;;3.17;;
16667;SDS011;8447;52.630;4.734;2023-06-22T12:10:06;8.23;;;6.17;;
16667;SDS011;8447;52.630;4.734;2023-06-22T12:12:33;9.30;;;4.77;;
16667;SDS011;8447;52.630;4.734;2023-06-22T12:14:59;9.60;;;5.07;;
16667;SDS011;8447;52.630;4.734;2023-06-22T12:17:28;14.40;;;5.03;;
16667;SDS011;8447;52.630;4.734;2023-06-22T12:19:55;6.70;;;3.87;;
16667;SDS011;8447;52.630;4.734;2023-06-22T12:22:22;7.70;;;5.73;;
16667;SDS011;8447;52.630;4.734;2023-06-22T12:24:49;4.67;;;3.67;;
16667;SDS011;8447;52.630;4.734;2023-06-22T12:27:16;8.80;;;5.80;;
16667;SDS011;8447;52.630;4.734;2023-06-22T12:29:43;7.33;;;5.40;;
16667;SDS011;8447;52.630;4.734;2023-06-22T12:32:09;8.40;;;5.60;;
16667;SDS011;8447;52.630;4.734;2023-06-22T12:34:38;7.97;;;4.67;;
16667;SDS011;8447;52.630;4.734;2023-06-22T12:37:04;6.90;;;5.97;;
16667;SDS011;8447;52.630;4.734;2023-06-22T12:39:32;8.97;;;5.47;;
16667;SDS011;8447;52.630;4.734;2023-06-22T12:41:58;6.97;;;3.73;;
16667;SDS011;8447;52.630;4.734;2023-06-22T12:44:25;6.63;;;4.93;;
16667;SDS011;8447;52.630;4.734;2023-06-22T12:46:51;6.30;;;3.83;;
16667;SDS011;8447;52.630;4.734;2023-06-22T12:49:18;8.37;;;5.23;;
16667;SDS011;8447;52.630;4.734;2023-06-22T12:51:46;16.57;;;4.53;;
16667;SDS011;8447;52.630;4.734;2023-06-22T12:54:12;7.03;;;3.80;;
16667;SDS011;8447;52.630;4.734;2023-06-22T12:56:41;8.07;;;4.50;;
16667;SDS011;8447;52.630;4.734;2023-06-22T12:59:08;6.53;;;2.90;;
16667;SDS011;8447;52.630;4.734;2023-06-22T13:01:35;5.63;;;3.97;;
16667;SDS011;8447;52.630;4.734;2023-06-22T13:04:02;4.67;;;3.73;;
16667;SDS011;8447;52.630;4.734;2023-06-22T13:06:28;6.53;;;4.67;;
16667;SDS011;8447;52.630;4.734;2023-06-22T13:08:55;7.67;;;4.07;;
16667;SDS011;8447;52.630;4.734;2023-06-22T13:11:21;4.27;;;3.63;;
16667;SDS011;8447;52.630;4.734;2023-06-22T13:13:49;5.83;;;3.37;;
16667;SDS011;8447;52.630;4.734;2023-06-22T13:16:15;4.13;;;3.37;;
16667;SDS011;8447;52.630;4.734;2023-06-22T13:18:42;4.13;;;3.13;;
16667;SDS011;8447;52.630;4.734;2023-06-22T13:21:08;5.10;;;3.90;;
16667;SDS011;8447;52.630;4.734;2023-06-22T13:23:34;5.90;;;4.10;;
16667;SDS011;8447;52.630;4.734;2023-06-22T13:26:01;8.03;;;4.13;;
16667;SDS011;8447;52.630;4.734;2023-06-22T13:28:27;6.30;;;2.93;;
16667;SDS011;8447;52.630;4.734;2023-06-22T13:30:56;5.07;;;4.00;;
16667;SDS011;8447;52.630;4.734;2023-06-22T13:33:22;5.93;;;4.00;;
16667;SDS011;8447;52.630;4.734;2023-06-22T13:35:49;3.93;;;2.93;;
16667;SDS011;8447;52.630;4.734;2023-06-22T13:38:15;5.63;;;3.87;;
16667;SDS011;8447;52.630;4.734;2023-06-22T13:40:42;4.00;;;2.50;;
16667;SDS011;8447;52.630;4.734;2023-06-22T13:43:09;5.10;;;3.60;;
16667;SDS011;8447;52.630;4.734;2023-06-22T13:45:35;4.57;;;3.50;;
16667;SDS011;8447;52.630;4.734;2023-06-22T13:48:03;5.47;;;3.70;;
16667;SDS011;8447;52.630;4.734;2023-06-22T13:50:30;4.80;;;3.83;;
16667;SDS011;8447;52.630;4.734;2023-06-22T13:52:56;3.10;;;2.47;;
16667;SDS011;8447;52.630;4.734;2023-06-22T13:55:22;6.07;;;3.87;;
16667;SDS011;8447;52.630;4.734;2023-06-22T13:57:49;5.13;;;4.13;;
16667;SDS011;8447;52.630;4.734;2023-06-22T14:00:16;6.33;;;4.30;;
16667;SDS011;8447;52.630;4.734;2023-06-22T14:02:43;7.73;;;3.23;;
16667;SDS011;8447;52.630;4.734;2023-06-22T14:05:10;4.30;;;3.80;;
16667;SDS011;8447;52.630;4.734;2023-06-22T14:07:37;5.97;;;3.33;;
16667;SDS011;8447;52.630;4.734;2023-06-22T14:10:03;6.67;;;2.50;;
16667;SDS011;8447;52.630;4.734;2023-06-22T14:12:30;3.93;;;2.80;;
16667;SDS011;8447;52.630;4.734;2023-06-22T14:14:56;3.87;;;2.67;;
16667;SDS011;8447;52.630;4.734;2023-06-22T14:17:23;3.77;;;2.87;;
16667;SDS011;8447;52.630;4.734;2023-06-22T14:19:51;3.37;;;2.30;;
16667;SDS011;8447;52.630;4.734;2023-06-22T14:22:21;3.00;;;2.20;;
16667;SDS011;8447;52.630;4.734;2023-06-22T14:24:47;4.10;;;2.37;;
16667;SDS011;8447;52.630;4.734;2023-06-22T14:27:14;2.93;;;2.20;;
16667;SDS011;8447;52.630;4.734;2023-06-22T14:29:40;1.80;;;1.60;;
16667;SDS011;8447;52.630;4.734;2023-06-22T14:32:07;2.70;;;1.80;;
16667;SDS011;8447;52.630;4.734;2023-06-22T14:34:33;2.47;;;2.10;;
16667;SDS011;8447;52.630;4.734;2023-06-22T14:37:01;5.53;;;2.30;;
16667;SDS011;8447;52.630;4.734;2023-06-22T14:39:29;3.00;;;2.40;;
16667;SDS011;8447;52.630;4.734;2023-06-22T14:41:55;2.50;;;1.90;;
16667;SDS011;8447;52.630;4.734;2023-06-22T14:44:21;2.77;;;2.23;;
16667;SDS011;8447;52.630;4.734;2023-06-22T14:46:48;2.70;;;1.83;;